createdAt,value
2018-08-12T00:01:43.326Z,14.10
2018-08-12T00:04:13.873Z,14.10
2018-08-12T00:06:44.525Z,14.10
2018-08-12T00:09:15.533Z,14.00
2018-08-12T00:11:45.837Z,13.90
2018-08-12T00:14:16.724Z,13.80
2018-08-12T00:16:47.167Z,13.70
2018-08-12T00:19:17.669Z,13.70
2018-08-12T00:21:48.131Z,13.80
2018-08-12T00:24:18.554Z,13.80
2018-08-12T00:26:49.064Z,13.80
2018-08-12T00:29:19.538Z,13.80
2018-08-12T00:31:49.915Z,13.90
2018-08-12T00:34:20.380Z,13.80
2018-08-12T00:36:50.822Z,13.80
2018-08-12T00:39:21.254Z,13.70
2018-08-12T00:41:51.784Z,13.70
2018-08-12T00:44:22.032Z,13.70
2018-08-12T00:46:52.246Z,13.70
2018-08-12T00:49:22.530Z,13.60
2018-08-12T00:51:53.212Z,13.70
2018-08-12T00:54:23.500Z,13.70
2018-08-12T00:56:54.080Z,13.70
2018-08-12T00:59:24.449Z,13.60
2018-08-12T01:01:54.774Z,13.60
2018-08-12T01:04:25.375Z,13.60
2018-08-12T01:06:56.030Z,13.60
2018-08-12T01:09:26.628Z,13.50
2018-08-12T01:11:57.242Z,13.50
2018-08-12T01:14:27.699Z,13.40
2018-08-12T01:16:58.379Z,13.40
2018-08-12T01:19:28.842Z,13.40
2018-08-12T01:21:59.153Z,13.30
2018-08-12T01:24:29.662Z,13.40
2018-08-12T01:27:00.139Z,13.30
2018-08-12T01:29:30.730Z,13.30
2018-08-12T01:32:01.208Z,13.20
2018-08-12T01:34:31.735Z,13.20
2018-08-12T01:37:02.138Z,13.20
2018-08-12T01:39:32.684Z,13.10
2018-08-12T01:42:03.108Z,13.10
2018-08-12T01:44:33.516Z,13.10
2018-08-12T01:47:03.944Z,13.00
2018-08-12T01:49:34.375Z,13.00
2018-08-12T01:52:04.956Z,12.90
2018-08-12T01:54:35.497Z,12.90
2018-08-12T01:57:06.050Z,12.80
2018-08-12T01:59:36.759Z,12.80
2018-08-12T02:02:07.104Z,12.80
2018-08-12T02:04:37.458Z,12.80
2018-08-12T02:07:07.766Z,12.80
2018-08-12T02:09:38.455Z,12.80
2018-08-12T02:12:08.979Z,12.80
2018-08-12T02:14:39.346Z,12.80
2018-08-12T02:17:10.121Z,12.70
2018-08-12T02:19:40.704Z,12.70
2018-08-12T02:22:11.075Z,12.60
2018-08-12T02:24:41.411Z,12.60
2018-08-12T02:27:11.793Z,12.50
2018-08-12T02:29:42.189Z,12.50
2018-08-12T02:32:12.450Z,12.50
2018-08-12T02:34:43.819Z,12.50
2018-08-12T02:37:14.431Z,12.40
2018-08-12T02:39:44.993Z,12.40
2018-08-12T02:42:15.506Z,12.40
2018-08-12T02:44:46.067Z,12.30
2018-08-12T02:47:16.751Z,12.20
2018-08-12T02:49:47.710Z,12.20
2018-08-12T02:52:18.143Z,12.20
2018-08-12T02:54:48.628Z,12.10
2018-08-12T02:57:19.123Z,12.10
2018-08-12T02:59:49.514Z,12.10
2018-08-12T03:02:19.996Z,12.10
2018-08-12T03:04:50.560Z,12.00
2018-08-12T03:07:20.974Z,11.80
2018-08-12T03:09:51.362Z,11.60
2018-08-12T03:12:22.117Z,11.50
2018-08-12T03:14:52.606Z,11.50
2018-08-12T03:17:23.216Z,11.40
2018-08-12T03:19:53.606Z,11.40
2018-08-12T03:22:24.222Z,11.50
2018-08-12T03:24:54.630Z,11.50
2018-08-12T03:27:24.910Z,11.60
2018-08-12T03:29:55.570Z,11.60
2018-08-12T03:32:26.228Z,11.60
2018-08-12T03:34:56.608Z,11.60
2018-08-12T03:37:27.073Z,11.60
2018-08-12T03:39:57.578Z,11.60
2018-08-12T03:42:28.056Z,11.60
2018-08-12T03:44:58.506Z,11.60
2018-08-12T03:47:29.020Z,11.60
2018-08-12T03:49:59.597Z,11.50
2018-08-12T03:52:30.047Z,11.50
2018-08-12T03:55:00.419Z,11.40
2018-08-12T03:57:30.683Z,11.50
2018-08-12T04:00:01.108Z,11.50
2018-08-12T04:02:31.409Z,11.40
2018-08-12T04:05:02.151Z,11.40
2018-08-12T04:07:32.563Z,11.50
2018-08-12T04:10:03.248Z,11.40
2018-08-12T04:12:33.650Z,11.40
2018-08-12T04:15:04.114Z,11.40
2018-08-12T04:17:34.621Z,11.40
2018-08-12T04:20:05.214Z,11.40
2018-08-12T04:22:35.489Z,11.40
2018-08-12T04:25:06.300Z,11.40
2018-08-12T04:27:36.732Z,11.40
2018-08-12T04:30:09.066Z,11.40
2018-08-12T04:32:39.597Z,11.40
2018-08-12T04:35:10.166Z,11.40
2018-08-12T04:37:40.471Z,11.50
2018-08-12T04:40:10.947Z,11.50
2018-08-12T04:42:41.462Z,11.50
2018-08-12T04:45:11.798Z,11.50
2018-08-12T04:47:42.206Z,11.50
2018-08-12T04:50:12.541Z,11.60
2018-08-12T04:52:42.952Z,11.70
2018-08-12T04:55:13.375Z,11.90
2018-08-12T04:57:43.729Z,12.10
2018-08-12T05:00:14.322Z,12.30
2018-08-12T05:02:45.658Z,12.40
2018-08-12T05:05:16.347Z,12.60
2018-08-12T05:07:47.202Z,12.80
2018-08-12T05:10:18.002Z,13.30
2018-08-12T05:12:48.554Z,14.20
2018-08-12T05:15:18.766Z,15.50
2018-08-12T05:17:49.155Z,16.60
2018-08-12T05:20:19.538Z,17.30
2018-08-12T05:22:49.894Z,17.80
2018-08-12T05:25:20.414Z,18.40
2018-08-12T05:27:50.863Z,19.20
2018-08-12T05:30:21.421Z,20.40
2018-08-12T05:32:51.794Z,21.10
2018-08-12T05:35:22.336Z,22.10
2018-08-12T05:37:52.494Z,22.80
2018-08-12T05:40:22.826Z,23.30
2018-08-12T05:42:53.310Z,23.20
2018-08-12T05:45:23.758Z,23.40
2018-08-12T05:47:54.247Z,24.40
2018-08-12T05:50:24.694Z,25.00
2018-08-12T05:52:55.103Z,25.60
2018-08-12T05:55:25.560Z,24.30
2018-08-12T05:57:56.183Z,25.20
2018-08-12T06:00:26.506Z,24.60
2018-08-12T06:02:56.958Z,23.70
2018-08-12T06:05:27.486Z,23.30
2018-08-12T06:07:57.854Z,22.50
2018-08-12T06:10:28.296Z,21.60
2018-08-12T06:12:58.802Z,21.40
2018-08-12T06:15:29.453Z,21.60
2018-08-12T06:18:00.012Z,21.50
2018-08-12T06:20:30.599Z,21.90
2018-08-12T06:23:00.894Z,22.60
2018-08-12T06:25:31.821Z,24.20
2018-08-12T06:28:02.187Z,24.80
2018-08-12T06:30:32.718Z,25.50
2018-08-12T06:33:03.174Z,25.70
2018-08-12T06:35:33.596Z,26.30
2018-08-12T06:38:03.953Z,26.00
2018-08-12T06:40:34.454Z,27.30
2018-08-12T06:43:04.779Z,27.20
2018-08-12T06:45:35.339Z,28.40
2018-08-12T06:48:06.020Z,28.10
2018-08-12T06:50:36.494Z,28.10
2018-08-12T06:53:06.846Z,29.00
2018-08-12T06:55:37.475Z,29.80
2018-08-12T06:58:08.010Z,29.50
2018-08-12T07:00:38.399Z,28.70
2018-08-12T07:03:08.955Z,28.60
2018-08-12T07:05:39.295Z,28.70
2018-08-12T07:08:09.714Z,28.50
2018-08-12T07:10:40.246Z,27.30
2018-08-12T07:13:10.734Z,27.50
2018-08-12T07:15:41.323Z,28.20
2018-08-12T07:18:12.179Z,28.60
2018-08-12T07:20:42.438Z,29.50
2018-08-12T07:23:12.802Z,29.50
2018-08-12T07:25:43.176Z,29.50
2018-08-12T07:28:13.460Z,29.60
2018-08-12T07:30:44.031Z,29.60
2018-08-12T07:33:14.538Z,29.60
2018-08-12T07:35:44.940Z,28.90
2018-08-12T07:38:15.495Z,29.30
2018-08-12T07:40:46.155Z,29.60
2018-08-12T07:43:16.633Z,29.60
2018-08-12T07:45:47.187Z,29.30
2018-08-12T07:48:17.968Z,29.20
2018-08-12T07:50:48.456Z,29.10
2018-08-12T07:53:18.871Z,27.70
2018-08-12T07:55:49.783Z,26.60
2018-08-12T07:58:20.543Z,26.30
2018-08-12T08:00:51.078Z,26.50
2018-08-12T08:03:21.671Z,26.90
2018-08-12T08:05:52.076Z,27.30
2018-08-12T08:08:22.585Z,28.30
2018-08-12T08:10:53.263Z,28.80
2018-08-12T08:13:23.685Z,27.70
2018-08-12T08:15:54.146Z,27.40
2018-08-12T08:18:24.624Z,27.20
2018-08-12T08:20:55.035Z,25.60
2018-08-12T08:23:25.623Z,26.50
2018-08-12T08:25:55.958Z,26.60
2018-08-12T08:28:26.237Z,27.60
2018-08-12T08:30:56.942Z,27.30
2018-08-12T08:33:27.386Z,28.50
2018-08-12T08:35:57.825Z,27.60
2018-08-12T08:38:28.278Z,26.20
2018-08-12T08:40:58.815Z,25.60
2018-08-12T08:43:29.310Z,25.70
2018-08-12T08:45:59.737Z,25.60
2018-08-12T08:48:30.642Z,25.80
2018-08-12T08:51:01.026Z,25.90
2018-08-12T08:53:31.485Z,26.20
2018-08-12T08:56:02.060Z,26.90
2018-08-12T08:58:34.219Z,27.90
2018-08-12T09:01:04.563Z,28.60
2018-08-12T09:03:35.102Z,29.00
2018-08-12T09:06:05.455Z,28.70
2018-08-12T09:08:35.999Z,29.50
2018-08-12T09:11:06.406Z,29.10
2018-08-12T09:13:36.852Z,28.40
2018-08-12T09:16:07.339Z,27.80
2018-08-12T09:18:37.781Z,27.30
2018-08-12T09:21:08.250Z,27.20
2018-08-12T09:23:38.679Z,28.00
2018-08-12T09:26:09.327Z,28.70
2018-08-12T09:28:39.638Z,27.70
2018-08-12T09:31:10.163Z,26.90
2018-08-12T09:33:40.583Z,26.50
2018-08-12T09:36:11.015Z,27.10
2018-08-12T09:38:41.362Z,27.10
2018-08-12T09:41:11.830Z,27.80
2018-08-12T09:43:42.298Z,29.60
2018-08-12T09:46:12.664Z,30.40
2018-08-12T09:48:43.157Z,30.90
2018-08-12T09:51:13.537Z,30.90
2018-08-12T09:53:44.173Z,30.90
2018-08-12T09:56:14.460Z,31.30
2018-08-12T09:58:45.056Z,32.00
2018-08-12T10:01:15.454Z,31.60
2018-08-12T10:03:45.879Z,31.80
2018-08-12T10:06:16.269Z,31.30
2018-08-12T10:08:46.680Z,32.30
2018-08-12T10:11:17.269Z,33.00
2018-08-12T10:13:47.678Z,33.10
2018-08-12T10:16:18.379Z,33.40
2018-08-12T10:18:49.041Z,32.20
2018-08-12T10:21:19.573Z,32.70
2018-08-12T10:23:50.155Z,33.20
2018-08-12T10:26:20.553Z,33.50
2018-08-12T10:28:51.296Z,32.80
2018-08-12T10:31:21.826Z,33.50
2018-08-12T10:33:52.236Z,33.00
2018-08-12T10:36:22.637Z,33.40
2018-08-12T10:38:53.366Z,33.60
2018-08-12T10:41:23.926Z,33.50
2018-08-12T10:43:54.174Z,31.20
2018-08-12T10:46:24.539Z,31.20
2018-08-12T10:48:55.126Z,32.50
2018-08-12T10:51:25.633Z,33.90
2018-08-12T10:53:56.177Z,34.80
2018-08-12T10:56:26.562Z,35.00
2018-08-12T10:58:57.071Z,35.00
2018-08-12T11:01:27.470Z,34.70
2018-08-12T11:03:57.968Z,33.90
2018-08-12T11:06:28.554Z,32.50
2018-08-12T11:08:59.058Z,32.70
2018-08-12T11:11:29.538Z,33.20
2018-08-12T11:13:59.962Z,33.60
2018-08-12T11:16:30.253Z,35.10
2018-08-12T11:19:00.678Z,35.30
2018-08-12T11:21:31.166Z,35.50
2018-08-12T11:24:01.442Z,34.50
2018-08-12T11:26:31.890Z,33.50
2018-08-12T11:29:02.381Z,34.10
2018-08-12T11:31:32.863Z,33.50
2018-08-12T11:34:03.285Z,35.40
2018-08-12T11:36:33.551Z,36.20
2018-08-12T11:39:03.976Z,36.50
2018-08-12T11:41:34.229Z,35.90
2018-08-12T11:44:04.532Z,35.90
2018-08-12T11:46:34.981Z,34.00
2018-08-12T11:49:05.399Z,33.40
2018-08-12T11:51:35.886Z,31.80
2018-08-12T11:54:06.378Z,31.40
2018-08-12T11:56:36.874Z,31.80
2018-08-12T11:59:07.123Z,32.70
2018-08-12T12:01:37.572Z,34.30
2018-08-12T12:04:08.131Z,34.10
2018-08-12T12:06:38.552Z,34.50
2018-08-12T12:09:10.671Z,35.30
2018-08-12T12:11:41.363Z,35.70
2018-08-12T12:14:11.802Z,34.40
2018-08-12T12:16:42.327Z,35.50
2018-08-12T12:19:12.871Z,35.10
2018-08-12T12:21:43.374Z,34.60
2018-08-12T12:24:14.090Z,34.50
2018-08-12T12:26:44.490Z,35.60
2018-08-12T12:29:14.846Z,34.80
2018-08-12T12:31:45.357Z,36.20
2018-08-12T12:34:15.899Z,37.80
2018-08-12T12:36:46.474Z,37.20
2018-08-12T12:39:16.769Z,36.50
2018-08-12T12:41:47.234Z,37.10
2018-08-12T12:44:17.613Z,37.50
2018-08-12T12:46:48.158Z,37.10
2018-08-12T12:49:18.367Z,36.90
2018-08-12T12:51:48.702Z,35.90
2018-08-12T12:54:19.195Z,35.20
2018-08-12T12:56:49.822Z,34.70
2018-08-12T12:59:20.446Z,36.00
2018-08-12T13:01:50.734Z,34.80
2018-08-12T13:04:21.215Z,35.00
2018-08-12T13:06:51.708Z,35.10
2018-08-12T13:09:22.210Z,34.40
2018-08-12T13:11:52.738Z,34.50
2018-08-12T13:14:23.228Z,35.80
2018-08-12T13:16:53.426Z,37.80
2018-08-12T13:19:23.739Z,38.50
2018-08-12T13:21:54.202Z,39.30
2018-08-12T13:24:24.648Z,39.80
2018-08-12T13:26:55.031Z,38.60
2018-08-12T13:29:25.282Z,38.90
2018-08-12T13:31:55.750Z,39.10
2018-08-12T13:34:26.199Z,38.60
2018-08-12T13:36:56.602Z,39.00
2018-08-12T13:39:27.128Z,37.40
2018-08-12T13:41:57.590Z,35.70
2018-08-12T13:44:28.162Z,35.50
2018-08-12T13:46:58.474Z,35.50
2018-08-12T13:49:28.802Z,36.00
2018-08-12T13:51:59.233Z,36.40
2018-08-12T13:54:29.580Z,37.30
2018-08-12T13:57:00.075Z,37.10
2018-08-12T13:59:30.592Z,37.70
2018-08-12T14:02:00.936Z,37.70
2018-08-12T14:04:31.195Z,36.30
2018-08-12T14:07:01.647Z,36.40
2018-08-12T14:09:32.112Z,37.40
2018-08-12T14:12:02.628Z,37.40
2018-08-12T14:14:33.184Z,37.50
2018-08-12T14:17:03.302Z,37.60
2018-08-12T14:19:33.703Z,36.80
2018-08-12T14:22:04.070Z,37.10
2018-08-12T14:24:34.260Z,36.20
2018-08-12T14:27:04.738Z,36.20
2018-08-12T14:29:35.028Z,36.90
2018-08-12T14:32:05.357Z,36.70
2018-08-12T14:34:35.714Z,36.40
2018-08-12T14:37:06.144Z,37.40
2018-08-12T14:39:36.606Z,38.40
2018-08-12T14:42:07.218Z,38.90
2018-08-12T14:44:37.769Z,39.10
2018-08-12T14:47:08.110Z,40.20
2018-08-12T14:49:38.763Z,40.90
2018-08-12T14:52:10.186Z,40.10
2018-08-12T14:54:40.760Z,38.70
2018-08-12T14:57:11.250Z,38.00
2018-08-12T14:59:41.690Z,38.50
2018-08-12T15:02:12.129Z,38.70
2018-08-12T15:04:42.403Z,39.30
2018-08-12T15:07:12.942Z,39.80
2018-08-12T15:09:43.234Z,38.60
2018-08-12T15:12:13.826Z,37.50
2018-08-12T15:14:44.246Z,37.30
2018-08-12T15:17:14.702Z,37.60
2018-08-12T15:19:45.126Z,38.70
2018-08-12T15:22:15.483Z,38.90
2018-08-12T15:24:45.791Z,38.60
2018-08-12T15:27:16.473Z,36.70
2018-08-12T15:29:46.794Z,37.10
2018-08-12T15:32:17.200Z,37.20
2018-08-12T15:34:47.568Z,37.30
2018-08-12T15:37:17.990Z,36.70
2018-08-12T15:39:48.329Z,36.90
2018-08-12T15:42:18.761Z,37.10
2018-08-12T15:44:49.079Z,37.20
2018-08-12T15:47:19.447Z,37.80
2018-08-12T15:49:50.066Z,38.00
2018-08-12T15:52:21.201Z,38.00
2018-08-12T15:54:51.745Z,38.60
2018-08-12T15:57:22.039Z,39.40
2018-08-12T15:59:52.579Z,39.30
2018-08-12T16:02:23.001Z,39.60
2018-08-12T16:04:53.558Z,40.40
2018-08-12T16:07:24.034Z,40.70
2018-08-12T16:09:54.573Z,40.50
2018-08-12T16:12:25.138Z,40.00
2018-08-12T16:14:55.416Z,40.10
2018-08-12T16:17:25.818Z,40.10
2018-08-12T16:19:56.266Z,40.00
2018-08-12T16:22:26.545Z,39.70
2018-08-12T16:24:56.878Z,39.00
2018-08-12T16:27:27.354Z,37.90
2018-08-12T16:29:57.838Z,37.70
2018-08-12T16:32:28.168Z,37.80
2018-08-12T16:34:58.524Z,37.90
2018-08-12T16:37:28.959Z,37.90
2018-08-12T16:39:59.566Z,37.60
2018-08-12T16:42:29.958Z,37.70
2018-08-12T16:45:00.278Z,38.40
2018-08-12T16:47:30.579Z,38.20
2018-08-12T16:50:00.903Z,37.80
2018-08-12T16:52:30.949Z,37.30
2018-08-12T16:55:01.512Z,36.70
2018-08-12T16:57:31.866Z,37.00
2018-08-12T17:00:02.067Z,36.60
2018-08-12T17:02:32.767Z,36.30
2018-08-12T17:05:02.963Z,36.00
2018-08-12T17:07:33.363Z,35.70
2018-08-12T17:10:03.750Z,35.00
2018-08-12T17:12:34.184Z,34.80
2018-08-12T17:15:05.380Z,35.00
2018-08-12T17:17:35.894Z,34.30
2018-08-12T17:20:08.219Z,33.10
2018-08-12T17:22:38.554Z,31.70
2018-08-12T17:25:08.910Z,30.50
2018-08-12T17:27:39.233Z,29.60
2018-08-12T17:30:11.634Z,29.10
2018-08-12T17:32:42.329Z,28.80
2018-08-12T17:35:12.655Z,28.40
2018-08-12T17:37:44.249Z,28.20
2018-08-12T17:40:15.226Z,28.00
2018-08-12T17:42:45.744Z,27.70
2018-08-12T17:45:16.247Z,27.50
2018-08-12T17:47:46.622Z,27.30
2018-08-12T17:50:17.832Z,27.10
2018-08-12T17:52:48.594Z,27.10
2018-08-12T17:55:19.154Z,26.90
2018-08-12T17:57:49.774Z,26.80
2018-08-12T18:00:20.130Z,26.80
2018-08-12T18:02:50.762Z,26.60
2018-08-12T18:05:21.258Z,26.50
2018-08-12T18:07:51.573Z,26.40
2018-08-12T18:10:21.946Z,26.30
2018-08-12T18:12:52.707Z,26.20
2018-08-12T18:15:23.390Z,26.10
2018-08-12T18:17:54.206Z,26.00
2018-08-12T18:20:24.717Z,25.90
2018-08-12T18:22:55.130Z,25.80
2018-08-12T18:25:25.596Z,25.60
2018-08-12T18:27:56.134Z,25.50
2018-08-12T18:30:26.477Z,25.40
2018-08-12T18:32:56.884Z,25.30
2018-08-12T18:35:27.342Z,25.20
2018-08-12T18:37:57.695Z,25.00
2018-08-12T18:40:28.157Z,24.80
2018-08-12T18:42:58.572Z,24.60
2018-08-12T18:45:29.041Z,24.40
2018-08-12T18:47:59.598Z,24.30
2018-08-12T18:50:30.458Z,24.20
2018-08-12T18:53:00.863Z,24.00
2018-08-12T18:55:31.521Z,23.90
2018-08-12T18:58:02.050Z,23.60
2018-08-12T19:00:32.623Z,23.50
2018-08-12T19:03:03.132Z,23.30
2018-08-12T19:05:33.451Z,23.10
2018-08-12T19:08:04.082Z,23.00
2018-08-12T19:10:34.626Z,22.90
2018-08-12T19:13:05.067Z,22.80
2018-08-12T19:15:35.412Z,22.70
2018-08-12T19:18:06.263Z,22.60
2018-08-12T19:20:36.526Z,22.50
2018-08-12T19:23:07.237Z,22.30
2018-08-12T19:25:37.527Z,22.20
2018-08-12T19:28:08.025Z,22.10
2018-08-12T19:30:38.657Z,22.00
2018-08-12T19:33:09.139Z,22.00
2018-08-12T19:35:39.575Z,21.80
2018-08-12T19:38:10.305Z,21.80
2018-08-12T19:40:40.663Z,21.70
2018-08-12T19:43:11.083Z,21.70
2018-08-12T19:45:41.711Z,21.70
2018-08-12T19:48:12.069Z,21.60
2018-08-12T19:50:42.698Z,21.60
2018-08-12T19:53:13.267Z,21.50
2018-08-12T19:55:43.743Z,21.40
2018-08-12T19:58:14.177Z,21.40
2018-08-12T20:00:44.628Z,21.30
2018-08-12T20:03:15.019Z,21.30
2018-08-12T20:05:45.510Z,21.20
2018-08-12T20:08:15.822Z,21.20
2018-08-12T20:10:46.152Z,21.10
2018-08-12T20:13:16.791Z,21.00
2018-08-12T20:15:47.306Z,20.90
2018-08-12T20:18:17.816Z,20.90
2018-08-12T20:20:48.178Z,20.80
2018-08-12T20:23:18.856Z,20.80
2018-08-12T20:25:49.258Z,20.70
2018-08-12T20:28:19.742Z,20.60
2018-08-12T20:30:50.394Z,20.50
2018-08-12T20:33:20.990Z,20.50
2018-08-12T20:35:51.511Z,20.50
2018-08-12T20:38:23.048Z,20.40
2018-08-12T20:40:53.442Z,20.30
2018-08-12T20:43:23.740Z,20.10
2018-08-12T20:45:54.103Z,19.90
2018-08-12T20:48:24.571Z,19.70
2018-08-12T20:50:55.070Z,19.60
2018-08-12T20:53:25.900Z,19.50
2018-08-12T20:55:56.267Z,19.40
2018-08-12T20:58:26.614Z,19.20
2018-08-12T21:00:57.198Z,19.20
2018-08-12T21:03:27.519Z,19.10
2018-08-12T21:05:57.903Z,19.00
2018-08-12T21:08:28.316Z,18.90
2018-08-12T21:10:58.729Z,18.90
2018-08-12T21:13:29.250Z,18.80
2018-08-12T21:15:59.875Z,18.70
2018-08-12T21:18:30.630Z,18.70
2018-08-12T21:21:01.159Z,18.70
2018-08-12T21:23:31.428Z,18.80
2018-08-12T21:26:02.039Z,18.90
2018-08-12T21:28:32.807Z,18.90
2018-08-12T21:31:03.222Z,18.90
2018-08-12T21:33:34.021Z,18.90
2018-08-12T21:36:04.475Z,18.80
2018-08-12T21:38:34.965Z,18.80
2018-08-12T21:41:05.196Z,18.70
2018-08-12T21:43:35.597Z,18.70
2018-08-12T21:46:06.032Z,18.80
2018-08-12T21:48:36.565Z,18.80
2018-08-12T21:51:07.020Z,18.80
2018-08-12T21:53:37.468Z,18.80
2018-08-12T21:56:07.863Z,18.80
2018-08-12T21:58:38.280Z,18.70
2018-08-12T22:01:08.960Z,18.60
2018-08-12T22:03:39.459Z,18.60
2018-08-12T22:06:10.129Z,18.60
2018-08-12T22:08:40.742Z,18.60
2018-08-12T22:11:11.264Z,18.50
2018-08-12T22:13:41.815Z,18.50
2018-08-12T22:16:12.131Z,18.40
2018-08-12T22:18:42.542Z,18.30
2018-08-12T22:21:13.020Z,18.30
2018-08-12T22:23:43.549Z,18.30
2018-08-12T22:26:14.087Z,18.30
2018-08-12T22:28:44.502Z,18.20
2018-08-12T22:31:15.011Z,18.20
2018-08-12T22:33:45.266Z,18.10
2018-08-12T22:36:15.658Z,18.00
2018-08-12T22:38:46.039Z,18.00
2018-08-12T22:41:16.429Z,17.80
2018-08-12T22:43:47.023Z,17.80
2018-08-12T22:46:17.510Z,17.80
2018-08-12T22:48:47.851Z,17.70
2018-08-12T22:51:18.391Z,17.70
2018-08-12T22:53:48.674Z,17.70
2018-08-12T22:56:19.176Z,17.60
2018-08-12T22:58:49.778Z,17.50
2018-08-12T23:01:20.691Z,17.50
2018-08-12T23:03:51.098Z,17.40
2018-08-12T23:06:21.753Z,17.30
2018-08-12T23:08:52.291Z,17.30
2018-08-12T23:11:22.760Z,17.30
2018-08-12T23:13:53.107Z,17.20
2018-08-12T23:16:39.898Z,17.30
2018-08-12T23:19:10.399Z,17.20
2018-08-12T23:21:40.931Z,17.20
2018-08-12T23:24:11.340Z,17.20
2018-08-12T23:26:41.895Z,17.10
2018-08-12T23:29:12.238Z,17.10
2018-08-12T23:31:43.054Z,17.10
2018-08-12T23:34:13.633Z,16.90
2018-08-12T23:36:44.226Z,16.90
2018-08-12T23:39:14.567Z,16.80
2018-08-12T23:41:45.086Z,16.80
2018-08-12T23:44:15.411Z,16.70
2018-08-12T23:46:45.779Z,16.60
2018-08-12T23:49:16.300Z,16.60
2018-08-12T23:51:46.649Z,16.50
2018-08-12T23:54:17.122Z,16.50
2018-08-12T23:56:47.482Z,16.50
2018-08-12T23:59:17.882Z,16.50
